Time;durP1;ratioP1;P1;durP2;ratioP2;P2;SDS_P1;SDS_P2;PMS_P1;PMS_P2;Temp;Humidity;BMP_temperature;BMP_pressure;BME280_temperature;BME280_humidity;BME280_pressure;Samples;Min_cycle;Max_cycle;Signal;HPM_P1;HPM_P2
2022/08/25 00:00:23;;;;;;;4.00;3.70;;;33.70;65.70;;;;;;5085584;28;20470;-67
2022/08/25 00:02:56;;;;;;;4.37;3.97;;;33.70;64.30;;;;;;5091930;28;20546;-67
2022/08/25 00:05:30;;;;;;;3.90;3.60;;;33.70;64.50;;;;;;5094427;28;20462;-68
2022/08/25 00:08:04;;;;;;;3.93;3.63;;;33.60;62.60;;;;;;5096195;28;20498;-67
2022/08/25 00:10:38;;;;;;;4.07;3.77;;;33.70;62.80;;;;;;5100790;28;20534;-67
2022/08/25 00:13:09;;;;;;;5.10;3.73;;;33.70;61.30;;;;;;5101713;28;20457;-67
2022/08/25 00:15:40;;;;;;;3.97;3.67;;;33.60;63.00;;;;;;5095022;28;20472;-67
2022/08/25 00:18:12;;;;;;;3.80;3.60;;;33.50;63.00;;;;;;5117239;28;20460;-68
2022/08/25 00:20:48;;;;;;;3.60;3.33;;;33.50;61.70;;;;;;5093702;28;20901;-66
2022/08/25 00:23:20;;;;;;;3.20;3.00;;;33.50;61.90;;;;;;5099528;28;20463;-66
2022/08/25 00:25:52;;;;;;;3.23;3.03;;;33.30;62.80;;;;;;5117071;28;20527;-67
2022/08/25 00:28:23;;;;;;;3.37;3.17;;;33.20;63.00;;;;;;5105928;28;20460;-65
2022/08/25 00:30:54;;;;;;;3.53;3.30;;;33.20;63.00;;;;;;5114958;28;20581;-66
2022/08/25 00:33:27;;;;;;;3.87;3.47;;;33.10;62.60;;;;;;5094815;28;20469;-65
2022/08/25 00:35:58;;;;;;;3.63;3.33;;;33.00;62.60;;;;;;5104529;28;20469;-65
2022/08/25 00:38:30;;;;;;;3.47;3.23;;;32.90;63.50;;;;;;5112904;28;20469;-68
2022/08/25 00:41:09;;;;;;;3.37;3.07;;;32.80;63.90;;;;;;5099702;28;20460;-67
2022/08/25 00:43:48;;;;;;;3.80;3.50;;;32.80;64.40;;;;;;5099570;28;20487;-64
2022/08/25 00:46:21;;;;;;;3.90;3.60;;;32.90;64.40;;;;;;5110188;28;20495;-65
2022/08/25 00:48:56;;;;;;;3.80;3.50;;;32.80;64.20;;;;;;5109979;28;20461;-65
2022/08/25 00:51:43;;;;;;;3.90;3.60;;;32.70;64.30;;;;;;5108125;28;20495;-65
2022/08/25 00:54:18;;;;;;;3.70;3.43;;;32.70;65.60;;;;;;5108175;28;20469;-67
2022/08/25 00:56:52;;;;;;;3.40;3.20;;;32.70;66.20;;;;;;5095814;28;20470;-65
2022/08/25 00:59:25;;;;;;;3.93;3.63;;;32.60;66.60;;;;;;5104405;28;20940;-66
2022/08/25 01:01:57;;;;;;;3.50;3.20;;;32.60;66.80;;;;;;5096159;28;20457;-65
2022/08/25 01:04:28;;;;;;;4.17;3.87;;;32.50;67.20;;;;;;5115379;28;20512;-65
2022/08/25 01:07:01;;;;;;;4.27;3.97;;;32.50;67.10;;;;;;5093032;28;20483;-66
2022/08/25 01:09:33;;;;;;;4.30;4.00;;;32.50;67.40;;;;;;5102731;28;20468;-64
2022/08/25 01:12:06;;;;;;;4.20;3.50;;;32.40;68.00;;;;;;5103924;28;20497;-64
2022/08/25 01:14:39;;;;;;;3.87;3.57;;;32.30;67.70;;;;;;5106783;28;20463;-64
2022/08/25 01:17:09;;;;;;;4.23;3.93;;;32.30;67.90;;;;;;5111431;28;20448;-65
2022/08/25 01:19:40;;;;;;;4.13;3.83;;;32.30;67.70;;;;;;5111502;28;20478;-64
2022/08/25 01:22:13;;;;;;;4.17;3.87;;;32.20;68.10;;;;;;5106118;28;20475;-65
2022/08/25 01:24:49;;;;;;;3.87;3.57;;;32.20;68.20;;;;;;5101558;28;20464;-65
2022/08/25 01:27:20;;;;;;;3.43;3.23;;;32.20;68.70;;;;;;5108985;28;20466;-64
2022/08/25 01:29:51;;;;;;;3.37;3.10;;;32.10;68.80;;;;;;5100426;28;20470;-64
2022/08/25 01:32:22;;;;;;;3.80;3.53;;;32.10;68.60;;;;;;5104857;28;20515;-64
2022/08/25 01:34:52;;;;;;;3.83;3.53;;;32.00;69.80;;;;;;5093882;28;20939;-65
2022/08/25 01:37:25;;;;;;;4.17;3.87;;;31.90;70.60;;;;;;5112715;28;20535;-65
2022/08/25 01:39:55;;;;;;;3.97;3.67;;;31.80;71.50;;;;;;5116153;28;20452;-65
2022/08/25 01:42:42;;;;;;;4.10;3.80;;;31.70;70.40;;;;;;5111430;28;20494;-66
2022/08/25 01:45:13;;;;;;;3.47;3.17;;;31.70;71.70;;;;;;5097732;28;20458;-65
2022/08/25 01:47:44;;;;;;;4.07;3.43;;;31.70;72.80;;;;;;5116451;28;20576;-63
2022/08/25 01:50:15;;;;;;;3.80;3.50;;;31.70;73.40;;;;;;5101027;28;20859;-64
2022/08/25 01:52:55;;;;;;;3.90;3.60;;;31.60;73.70;;;;;;5117407;28;20472;-64
2022/08/25 01:55:26;;;;;;;3.90;3.60;;;31.60;74.20;;;;;;5099689;28;20453;-65
2022/08/25 01:57:58;;;;;;;4.77;4.43;;;31.60;73.40;;;;;;5105738;28;20467;-65
2022/08/25 02:00:30;;;;;;;4.37;4.07;;;31.50;73.80;;;;;;5117211;28;20487;-64
2022/08/25 02:03:01;;;;;;;3.60;3.40;;;31.30;73.60;;;;;;5106689;28;20926;-66
2022/08/25 02:05:34;;;;;;;3.40;3.20;;;31.20;74.50;;;;;;5096964;28;20547;-65
2022/08/25 02:08:07;;;;;;;3.97;3.67;;;31.10;74.60;;;;;;5109714;28;20483;-65
2022/08/25 02:10:38;;;;;;;3.50;3.20;;;30.90;75.50;;;;;;5099155;28;20460;-67
2022/08/25 02:13:09;;;;;;;3.93;3.63;;;30.90;75.80;;;;;;5094129;28;20459;-66
2022/08/25 02:15:44;;;;;;;4.17;3.77;;;30.80;75.60;;;;;;5107826;28;20533;-66
2022/08/25 02:18:15;;;;;;;3.90;3.60;;;30.70;75.80;;;;;;5107393;28;20465;-66
2022/08/25 02:20:47;;;;;;;4.40;4.00;;;30.70;75.60;;;;;;5109852;28;20467;-66
2022/08/25 02:23:19;;;;;;;3.60;3.30;;;30.60;75.40;;;;;;5124248;28;20484;-66
2022/08/25 02:25:50;;;;;;;3.77;3.47;;;30.60;75.20;;;;;;5112192;28;20463;-65
2022/08/25 02:28:21;;;;;;;4.00;3.70;;;30.50;76.20;;;;;;5106891;28;20469;-65
2022/08/25 02:30:52;;;;;;;3.37;3.17;;;30.30;76.20;;;;;;5109610;28;20602;-63
2022/08/25 02:33:30;;;;;;;3.50;3.20;;;30.20;77.00;;;;;;5120048;28;20459;-66
2022/08/25 02:36:02;;;;;;;3.63;3.33;;;30.10;77.40;;;;;;5093270;28;20468;-67
2022/08/25 02:38:35;;;;;;;3.90;3.50;;;29.90;78.00;;;;;;5094788;28;20477;-67
2022/08/25 02:41:12;;;;;;;3.83;3.53;;;29.80;78.70;;;;;;5117387;28;20461;-65
2022/08/25 02:43:44;;;;;;;4.13;3.83;;;29.70;78.50;;;;;;5090450;28;20477;-68
2022/08/25 02:46:16;;;;;;;3.93;3.63;;;29.60;79.20;;;;;;5091569;28;20497;-68
2022/08/25 02:48:48;;;;;;;3.87;3.57;;;29.50;79.40;;;;;;5096809;28;20465;-67
2022/08/25 02:51:19;;;;;;;3.00;2.80;;;29.40;79.50;;;;;;5122011;28;20480;-67
2022/08/25 02:53:52;;;;;;;3.40;3.10;;;29.30;79.60;;;;;;5118338;28;20809;-67
2022/08/25 02:56:23;;;;;;;3.17;2.93;;;29.20;80.10;;;;;;5097085;28;20505;-68
2022/08/25 02:58:54;;;;;;;3.10;2.90;;;29.10;80.70;;;;;;5104471;28;20454;-68
2022/08/25 03:01:25;;;;;;;3.77;3.50;;;29.00;80.40;;;;;;5113061;28;21282;-69
2022/08/25 03:03:58;;;;;;;3.90;3.53;;;29.00;80.10;;;;;;5111728;28;20479;-68
2022/08/25 03:06:29;;;;;;;3.77;3.47;;;28.90;80.40;;;;;;5113280;28;20451;-67
2022/08/25 03:09:02;;;;;;;3.43;3.13;;;28.90;80.70;;;;;;5121937;28;20515;-67
2022/08/25 03:11:32;;;;;;;3.33;3.13;;;28.70;81.00;;;;;;5113314;28;20517;-68
2022/08/25 03:14:03;;;;;;;3.70;2.93;;;28.70;80.80;;;;;;5121369;28;20462;-67
2022/08/25 03:16:34;;;;;;;3.17;2.87;;;28.70;80.90;;;;;;5100012;28;20555;-67
2022/08/25 03:19:05;;;;;;;3.60;3.30;;;28.70;80.80;;;;;;5115687;28;20462;-68
2022/08/25 03:21:37;;;;;;;2.50;2.30;;;28.70;80.80;;;;;;5115847;28;20461;-67
2022/08/25 03:24:10;;;;;;;3.50;3.30;;;28.60;81.80;;;;;;5122659;28;20455;-68
2022/08/25 03:26:54;;;;;;;3.80;3.50;;;28.70;80.90;;;;;;5118457;28;20454;-68
2022/08/25 03:29:27;;;;;;;2.97;2.77;;;28.70;80.90;;;;;;5113624;28;20463;-68
2022/08/25 03:31:58;;;;;;;2.97;2.67;;;28.60;81.00;;;;;;5109886;28;20502;-68
2022/08/25 03:34:30;;;;;;;2.83;2.63;;;28.50;81.80;;;;;;5104187;28;20489;-68
2022/08/25 03:37:01;;;;;;;3.37;3.10;;;28.40;81.60;;;;;;5113385;28;20463;-69
2022/08/25 03:39:34;;;;;;;3.53;3.23;;;28.40;82.10;;;;;;5111394;28;20465;-68
2022/08/25 03:42:05;;;;;;;3.30;3.10;;;28.20;82.60;;;;;;5104481;28;20484;-70
2022/08/25 03:44:36;;;;;;;3.80;3.50;;;28.10;83.20;;;;;;5112659;28;20453;-70
2022/08/25 03:47:07;;;;;;;2.93;2.63;;;28.10;83.10;;;;;;5102227;28;20484;-70
2022/08/25 03:49:38;;;;;;;3.33;3.10;;;28.00;83.30;;;;;;5110131;28;20461;-66
2022/08/25 03:52:08;;;;;;;3.10;2.90;;;28.00;84.10;;;;;;5102282;28;20489;-69
2022/08/25 03:54:41;;;;;;;2.90;2.70;;;27.90;84.00;;;;;;5105306;28;20458;-71
2022/08/25 03:57:12;;;;;;;4.80;3.23;;;27.90;84.90;;;;;;5114917;28;20462;-68
2022/08/25 03:59:42;;;;;;;3.10;2.90;;;27.70;85.10;;;;;;5113732;28;20451;-69
2022/08/25 04:02:13;;;;;;;4.10;3.80;;;27.70;85.50;;;;;;5096169;28;20465;-69
2022/08/25 04:04:44;;;;;;;2.80;2.60;;;27.70;85.60;;;;;;5114473;28;20485;-68
2022/08/25 04:07:15;;;;;;;3.27;2.97;;;27.70;85.70;;;;;;5115353;28;20591;-69
2022/08/25 04:09:47;;;;;;;3.17;2.87;;;27.60;85.90;;;;;;5106350;28;20477;-69
2022/08/25 04:12:18;;;;;;;2.87;2.67;;;27.50;86.70;;;;;;5111333;28;20484;-68
2022/08/25 04:14:51;;;;;;;3.17;2.97;;;27.50;86.70;;;;;;5102650;28;20509;-68
2022/08/25 04:17:22;;;;;;;3.33;3.03;;;27.50;86.70;;;;;;5111772;28;20521;-68
2022/08/25 04:19:53;;;;;;;3.00;2.80;;;27.50;86.50;;;;;;5100403;28;20457;-69
2022/08/25 04:22:24;;;;;;;4.20;3.20;;;27.50;86.70;;;;;;5104445;28;20466;-70
2022/08/25 04:25:00;;;;;;;3.30;3.00;;;27.60;87.30;;;;;;5103387;28;20569;-68
2022/08/25 04:27:31;;;;;;;3.57;3.30;;;27.50;87.80;;;;;;5094884;28;20478;-68
2022/08/25 04:30:01;;;;;;;2.80;2.60;;;27.40;88.30;;;;;;5101561;28;20465;-69
2022/08/25 04:32:32;;;;;;;3.53;3.23;;;27.30;88.80;;;;;;5105128;28;20493;-68
2022/08/25 04:35:03;;;;;;;2.73;2.53;;;27.20;89.70;;;;;;5114430;28;20462;-68
2022/08/25 04:37:34;;;;;;;3.70;3.40;;;27.10;90.00;;;;;;5115226;28;20494;-68
2022/08/25 04:40:08;;;;;;;2.73;2.53;;;27.00;90.40;;;;;;5118909;28;20468;-68
2022/08/25 04:42:39;;;;;;;3.67;2.93;;;26.90;90.50;;;;;;5111071;28;20503;-69
2022/08/25 04:45:10;;;;;;;2.33;2.23;;;26.90;90.70;;;;;;5110691;28;20461;-68
2022/08/25 04:47:41;;;;;;;2.90;2.70;;;26.80;90.90;;;;;;5111352;28;20468;-68
2022/08/25 04:50:12;;;;;;;2.60;2.40;;;26.80;91.10;;;;;;5121330;28;20579;-68
2022/08/25 04:52:43;;;;;;;3.07;2.77;;;26.60;91.40;;;;;;5101999;28;20490;-67
2022/08/25 04:55:17;;;;;;;3.20;3.00;;;26.60;91.60;;;;;;5105878;28;20476;-69
2022/08/25 04:57:48;;;;;;;2.60;2.40;;;26.50;91.90;;;;;;5118087;28;20444;-67
2022/08/25 05:00:20;;;;;;;2.77;2.57;;;26.40;92.40;;;;;;5104804;28;20447;-67
2022/08/25 05:02:50;;;;;;;3.10;2.60;;;26.30;92.30;;;;;;5103018;28;20563;-67
2022/08/25 05:05:21;;;;;;;2.60;2.40;;;26.30;92.80;;;;;;5105184;28;20466;-67
2022/08/25 05:07:52;;;;;;;3.30;3.00;;;26.20;92.90;;;;;;5109575;28;20482;-67
2022/08/25 05:10:25;;;;;;;3.23;3.00;;;26.10;93.20;;;;;;5101035;28;20459;-67
2022/08/25 05:12:56;;;;;;;2.53;2.33;;;26.00;93.60;;;;;;5104767;28;20481;-67
2022/08/25 05:18:15;;;;;;;2.70;2.50;;;26.10;93.80;;;;;;5103607;28;20472;-66
2022/08/25 05:20:46;;;;;;;2.53;2.33;;;26.10;93.80;;;;;;5093639;28;20495;-67
2022/08/25 05:23:17;;;;;;;6.50;2.90;;;26.20;94.30;;;;;;5104541;28;20487;-67
2022/08/25 05:25:50;;;;;;;2.50;2.30;;;26.20;94.10;;;;;;5102660;28;20468;-67
2022/08/25 05:28:21;;;;;;;3.10;2.80;;;26.10;94.30;;;;;;5104063;28;20461;-67
2022/08/25 05:30:52;;;;;;;2.33;2.13;;;26.10;94.50;;;;;;5104711;28;20475;-67
2022/08/25 05:33:23;;;;;;;3.03;2.73;;;25.90;94.90;;;;;;5087468;28;20866;-68
2022/08/25 05:35:59;;;;;;;3.50;3.20;;;25.80;95.30;;;;;;5100886;28;20453;-67
2022/08/25 05:38:30;;;;;;;2.60;2.40;;;25.70;95.90;;;;;;5089951;28;20460;-67
2022/08/25 05:41:04;;;;;;;2.80;2.60;;;25.60;96.80;;;;;;5093865;28;20459;-68
2022/08/25 05:43:37;;;;;;;3.00;2.67;;;25.50;96.90;;;;;;5112173;28;20505;-68
2022/08/25 05:46:08;;;;;;;2.43;2.27;;;25.50;97.10;;;;;;5117474;28;20466;-68
2022/08/25 05:48:41;;;;;;;3.03;2.80;;;25.40;97.80;;;;;;5113965;28;20497;-68
2022/08/25 05:51:13;;;;;;;3.00;2.80;;;25.30;98.10;;;;;;5096987;28;20474;-68
2022/08/25 05:53:46;;;;;;;3.90;2.50;;;25.40;98.20;;;;;;5107662;28;20500;-68
2022/08/25 05:56:19;;;;;;;3.67;3.30;;;25.30;98.60;;;;;;5110394;28;20457;-69
2022/08/25 05:58:50;;;;;;;2.87;2.57;;;25.30;99.20;;;;;;5094120;28;20455;-67
2022/08/25 06:04:14;;;;;;;3.40;3.10;;;25.20;99.90;;;;;;5124828;28;20453;-68
2022/08/25 06:06:46;;;;;;;3.17;2.80;;;25.10;99.90;;;;;;5091086;28;20946;-68
2022/08/25 06:09:16;;;;;;;2.73;2.53;;;25.00;99.90;;;;;;5116527;28;20451;-68
2022/08/25 06:11:49;;;;;;;2.40;2.20;;;25.00;99.90;;;;;;5106131;28;20464;-68
2022/08/25 06:14:24;;;;;;;2.57;2.37;;;24.90;99.90;;;;;;5106159;28;20522;-68
2022/08/25 06:16:55;;;;;;;3.07;2.77;;;24.80;99.90;;;;;;5094291;28;20494;-67
2022/08/25 06:19:26;;;;;;;2.90;2.70;;;24.80;99.90;;;;;;5098204;28;20478;-67
2022/08/25 06:21:58;;;;;;;3.00;2.70;;;24.80;99.90;;;;;;5111269;28;20464;-67
2022/08/25 06:24:30;;;;;;;3.17;2.87;;;24.80;99.90;;;;;;5103020;28;20470;-67
2022/08/25 06:27:02;;;;;;;3.23;2.90;;;24.70;99.90;;;;;;5119094;28;20479;-67
2022/08/25 06:29:33;;;;;;;3.40;2.73;;;24.60;99.90;;;;;;5106422;28;20462;-67
2022/08/25 06:32:07;;;;;;;3.10;2.70;;;24.60;99.90;;;;;;5117382;28;20447;-68
2022/08/25 06:34:38;;;;;;;3.00;2.80;;;24.50;99.90;;;;;;5086476;28;20503;-67
2022/08/25 06:37:08;;;;;;;3.20;2.90;;;24.50;99.90;;;;;;5096894;28;20560;-67
2022/08/25 06:39:40;;;;;;;2.67;2.47;;;24.40;99.90;;;;;;5106970;28;20459;-67
2022/08/25 06:42:13;;;;;;;3.60;3.30;;;24.40;99.90;;;;;;5105712;28;20971;-67
2022/08/25 06:44:44;;;;;;;2.70;2.50;;;24.40;99.90;;;;;;5103993;28;20466;-67
2022/08/25 06:47:15;;;;;;;3.13;2.83;;;24.30;99.90;;;;;;5120784;28;20467;-67
2022/08/25 06:49:46;;;;;;;3.60;3.20;;;24.30;99.90;;;;;;5107915;28;20467;-67
2022/08/25 06:52:16;;;;;;;3.43;3.13;;;24.20;99.90;;;;;;5109104;28;20469;-67
2022/08/25 06:54:48;;;;;;;3.37;3.07;;;24.20;99.90;;;;;;5093322;28;20491;-68
2022/08/25 06:57:20;;;;;;;2.70;2.50;;;24.20;99.90;;;;;;5106510;28;20589;-68
2022/08/25 06:59:51;;;;;;;2.90;2.70;;;24.20;99.90;;;;;;5111405;28;20473;-68
2022/08/25 07:02:23;;;;;;;3.03;2.80;;;24.20;99.90;;;;;;5111423;28;20463;-67
2022/08/25 07:04:54;;;;;;;3.10;2.80;;;24.10;99.90;;;;;;5103524;28;20452;-68
2022/08/25 07:07:25;;;;;;;2.80;2.60;;;24.00;99.90;;;;;;5097164;28;20465;-67
2022/08/25 07:10:12;;;;;;;3.07;2.83;;;24.00;99.90;;;;;;5100573;28;20543;-68
2022/08/25 07:12:50;;;;;;;3.20;2.90;;;24.00;99.90;;;;;;5091512;28;20461;-68
2022/08/25 07:15:21;;;;;;;3.07;2.87;;;24.00;99.90;;;;;;5103438;28;20606;-68
2022/08/25 07:17:52;;;;;;;2.80;2.60;;;23.90;99.90;;;;;;5102251;28;20803;-68
2022/08/25 07:20:23;;;;;;;3.30;3.00;;;23.80;99.90;;;;;;5102288;28;20455;-67
2022/08/25 07:22:58;;;;;;;3.23;2.83;;;23.80;99.90;;;;;;5101569;28;20492;-68
2022/08/25 07:25:29;;;;;;;3.10;2.87;;;23.80;99.90;;;;;;5103237;28;20443;-67
2022/08/25 07:28:02;;;;;;;4.53;3.20;;;23.70;99.90;;;;;;5102033;28;20595;-67
2022/08/25 07:30:33;;;;;;;3.20;2.90;;;23.60;99.90;;;;;;5096712;28;20470;-67
2022/08/25 07:33:04;;;;;;;3.20;2.90;;;23.50;99.90;;;;;;5093394;28;20450;-67
2022/08/25 07:35:36;;;;;;;2.73;2.53;;;23.50;99.90;;;;;;5103021;28;20454;-67
2022/08/25 07:38:08;;;;;;;3.23;3.03;;;23.40;99.90;;;;;;5101847;28;20462;-67
2022/08/25 07:40:44;;;;;;;3.20;3.00;;;23.40;99.90;;;;;;5101537;28;20485;-67
2022/08/25 07:43:24;;;;;;;2.87;2.67;;;23.30;99.90;;;;;;5082158;28;20528;-67
2022/08/25 07:45:54;;;;;;;3.30;2.77;;;23.30;99.90;;;;;;5089093;28;20549;-68
2022/08/25 07:48:25;;;;;;;6.87;3.40;;;23.20;99.90;;;;;;5087703;28;20455;-68
2022/08/25 07:50:56;;;;;;;3.13;2.83;;;23.20;99.90;;;;;;5097880;28;20473;-67
2022/08/25 07:53:27;;;;;;;2.60;2.40;;;23.20;99.90;;;;;;5101622;28;20465;-68
2022/08/25 07:55:58;;;;;;;3.10;2.80;;;23.10;99.90;;;;;;5088228;28;20475;-68
2022/08/25 07:58:30;;;;;;;3.60;3.30;;;23.10;99.90;;;;;;5083518;28;20461;-67
2022/08/25 08:01:03;;;;;;;3.50;3.20;;;23.00;99.90;;;;;;5082823;28;20443;-68
2022/08/25 08:03:34;;;;;;;3.90;3.00;;;23.00;99.90;;;;;;5097925;28;20478;-67
2022/08/25 08:06:21;;;;;;;3.60;3.07;;;23.00;99.90;;;;;;5083966;28;20472;-67
2022/08/25 08:08:53;;;;;;;3.23;3.00;;;23.00;99.90;;;;;;5101696;28;20453;-67
2022/08/25 08:11:29;;;;;;;3.77;3.13;;;22.90;99.90;;;;;;5098285;28;20465;-67
2022/08/25 08:14:02;;;;;;;2.93;2.73;;;22.90;99.90;;;;;;5085182;28;20499;-67
2022/08/25 08:16:33;;;;;;;4.50;4.10;;;22.80;99.90;;;;;;5082438;28;20463;-68
2022/08/25 08:19:05;;;;;;;2.93;2.73;;;22.80;99.90;;;;;;5082207;28;20448;-68
2022/08/25 08:21:37;;;;;;;3.37;3.07;;;22.80;99.90;;;;;;5100292;28;20454;-67
2022/08/25 08:24:09;;;;;;;3.20;2.90;;;22.70;99.90;;;;;;5097992;28;20470;-67
2022/08/25 08:27:00;;;;;;;2.70;2.50;;;22.60;99.90;;;;;;5085198;28;20488;-67
2022/08/25 08:29:32;;;;;;;4.10;3.70;;;22.70;99.90;;;;;;5102151;28;20470;-67
2022/08/25 08:32:04;;;;;;;4.20;3.30;;;22.60;99.90;;;;;;5095085;28;20455;-67
2022/08/25 08:34:36;;;;;;;3.50;3.20;;;22.60;99.90;;;;;;5097704;28;20600;-67
2022/08/25 08:37:07;;;;;;;2.93;2.73;;;22.60;99.90;;;;;;5099850;28;20509;-67
2022/08/25 08:39:39;;;;;;;4.30;3.30;;;22.50;99.90;;;;;;5084307;28;20452;-67
2022/08/25 08:42:23;;;;;;;3.90;3.57;;;22.50;99.90;;;;;;5082770;28;20491;-67
2022/08/25 08:45:13;;;;;;;3.83;3.53;;;22.50;99.90;;;;;;5083225;28;20535;-67
2022/08/25 08:47:54;;;;;;;3.63;3.37;;;22.40;99.90;;;;;;5097338;28;20520;-67
2022/08/25 08:50:32;;;;;;;3.53;3.23;;;22.30;99.90;;;;;;5086738;28;20471;-67
2022/08/25 08:53:09;;;;;;;3.83;3.43;;;22.40;99.90;;;;;;5082343;28;20582;-68
2022/08/25 08:55:43;;;;;;;3.07;2.87;;;22.30;99.90;;;;;;5096220;28;20620;-67
2022/08/25 08:58:23;;;;;;;3.13;2.93;;;22.30;99.90;;;;;;5101567;28;20454;-67
2022/08/25 09:01:00;;;;;;;3.60;3.30;;;22.30;99.90;;;;;;5091636;28;20487;-68
2022/08/25 09:03:37;;;;;;;3.43;3.13;;;22.40;99.90;;;;;;5089208;28;20536;-68
2022/08/25 09:06:12;;;;;;;5.03;3.03;;;22.30;99.90;;;;;;5082708;28;20467;-67
2022/08/25 09:08:44;;;;;;;3.20;2.90;;;22.20;99.90;;;;;;5088293;28;20794;-68
2022/08/25 09:11:26;;;;;;;3.60;3.30;;;22.20;99.90;;;;;;5091455;28;20474;-68
2022/08/25 09:14:19;;;;;;;3.33;3.03;;;22.20;99.90;;;;;;5082467;28;20451;-68
2022/08/25 09:16:58;;;;;;;4.33;3.20;;;22.20;99.90;;;;;;5093240;28;20456;-68
2022/08/25 09:19:59;;;;;;;4.00;3.60;;;22.20;99.90;;;;;;5095733;28;20460;-68
2022/08/25 09:22:48;;;;;;;3.60;3.30;;;22.10;99.90;;;;;;5089110;28;20852;-68
2022/08/25 09:25:29;;;;;;;3.87;3.57;;;22.00;99.90;;;;;;5095515;28;20464;-68
2022/08/25 09:28:22;;;;;;;3.07;2.87;;;22.00;99.90;;;;;;5096599;28;20480;-67
2022/08/25 09:30:58;;;;;;;4.00;3.10;;;22.00;99.90;;;;;;5097370;28;20939;-68
2022/08/25 09:33:33;;;;;;;3.43;3.23;;;22.00;99.90;;;;;;5086266;28;20440;-67
2022/08/25 09:36:05;;;;;;;3.50;3.20;;;21.90;99.90;;;;;;5091757;28;20504;-67
2022/08/25 09:38:38;;;;;;;4.27;3.93;;;21.80;99.90;;;;;;5105304;28;20573;-67
2022/08/25 09:41:10;;;;;;;3.77;3.47;;;21.80;99.90;;;;;;5093126;28;20451;-68
2022/08/25 09:43:44;;;;;;;3.57;3.27;;;21.80;99.90;;;;;;5105199;28;20453;-67
2022/08/25 09:46:17;;;;;;;4.40;3.40;;;21.70;99.90;;;;;;5105102;28;20488;-67
2022/08/25 09:48:54;;;;;;;3.60;3.30;;;21.70;99.90;;;;;;5086795;28;20494;-67
2022/08/25 09:51:29;;;;;;;3.33;3.03;;;21.70;99.90;;;;;;5084044;28;20471;-67
2022/08/25 09:54:24;;;;;;;3.63;3.33;;;21.70;99.90;;;;;;5086954;28;20947;-67
2022/08/25 09:57:33;;;;;;;3.73;3.43;;;21.60;99.90;;;;;;5085409;28;20519;-67
2022/08/25 10:00:20;;;;;;;3.43;3.07;;;21.60;99.90;;;;;;5086455;28;20438;-67
2022/08/25 10:03:13;;;;;;;5.03;3.90;;;21.40;99.90;;;;;;5098285;28;20456;-67
2022/08/25 10:06:03;;;;;;;3.97;3.67;;;21.40;99.90;;;;;;5083738;28;20481;-67
2022/08/25 10:08:38;;;;;;;3.50;3.20;;;21.40;99.90;;;;;;5084713;28;20462;-68
2022/08/25 10:11:11;;;;;;;3.50;3.20;;;21.40;99.90;;;;;;5100984;28;20970;-67
2022/08/25 10:13:46;;;;;;;3.80;3.50;;;21.40;99.90;;;;;;5084034;28;20482;-67
2022/08/25 10:16:25;;;;;;;3.90;3.50;;;21.40;99.90;;;;;;5084131;28;20497;-67
2022/08/25 10:19:08;;;;;;;3.60;3.30;;;21.30;99.90;;;;;;5100075;28;20451;-67
2022/08/25 10:21:42;;;;;;;3.93;3.53;;;21.20;99.90;;;;;;5101739;28;20466;-67
2022/08/25 10:24:14;;;;;;;3.83;3.30;;;21.10;99.90;;;;;;5103690;28;20458;-67
2022/08/25 10:26:56;;;;;;;6.03;3.60;;;21.10;99.90;;;;;;5103569;28;20902;-67
2022/08/25 10:29:40;;;;;;;3.73;2.97;;;21.10;99.90;;;;;;5084282;28;20923;-67
2022/08/25 10:32:17;;;;;;;4.00;3.30;;;21.20;99.90;;;;;;5084173;28;20489;-67
2022/08/25 10:34:50;;;;;;;3.80;3.50;;;21.00;99.90;;;;;;5089256;28;20974;-67
2022/08/25 10:37:36;;;;;;;4.20;3.87;;;21.00;99.90;;;;;;5093755;28;20463;-67
2022/08/25 10:40:16;;;;;;;3.50;3.20;;;21.00;99.90;;;;;;5084150;28;20476;-67
2022/08/25 10:42:58;;;;;;;3.50;3.20;;;20.90;99.90;;;;;;5083437;28;20606;-67
2022/08/25 10:45:46;;;;;;;3.23;2.93;;;20.90;99.90;;;;;;5102987;28;20429;-66
2022/08/25 10:48:42;;;;;;;3.70;3.20;;;20.90;99.90;;;;;;5104089;28;20430;-67
2022/08/25 10:51:30;;;;;;;3.80;3.50;;;20.90;99.90;;;;;;5102389;28;20414;-68
2022/08/25 10:54:11;;;;;;;3.27;2.97;;;20.80;99.90;;;;;;5097796;28;20467;-67
2022/08/25 10:56:44;;;;;;;3.23;2.93;;;20.80;99.90;;;;;;5087259;28;20461;-67
2022/08/25 10:59:30;;;;;;;5.17;4.67;;;20.70;99.90;;;;;;5094975;28;20575;-67
2022/08/25 11:02:29;;;;;;;4.50;4.10;;;20.80;99.90;;;;;;5096443;28;20466;-67
2022/08/25 11:05:06;;;;;;;4.10;3.70;;;20.70;99.90;;;;;;5093048;28;20512;-67
2022/08/25 11:07:42;;;;;;;4.60;4.13;;;20.70;99.90;;;;;;5091703;28;20467;-67
2022/08/25 11:10:19;;;;;;;3.53;3.07;;;20.70;99.90;;;;;;5096791;28;20469;-67
2022/08/25 11:12:55;;;;;;;3.93;3.50;;;20.60;99.90;;;;;;5087768;28;20502;-68
2022/08/25 11:15:32;;;;;;;3.27;2.97;;;20.60;99.90;;;;;;5094394;28;20479;-67
2022/08/25 11:18:07;;;;;;;3.43;3.10;;;20.60;99.90;;;;;;5087167;28;20447;-67
2022/08/25 11:20:50;;;;;;;3.43;3.13;;;20.60;99.90;;;;;;5086271;28;20557;-67
2022/08/25 11:23:24;;;;;;;4.17;3.70;;;20.60;99.90;;;;;;5091256;28;20421;-67
2022/08/25 11:26:01;;;;;;;3.93;3.50;;;20.50;99.90;;;;;;5102548;28;20846;-67
2022/08/25 11:28:36;;;;;;;3.20;3.00;;;20.50;99.90;;;;;;5095636;28;20485;-68
2022/08/25 11:31:09;;;;;;;4.20;3.73;;;20.50;99.90;;;;;;5082790;28;20788;-68
2022/08/25 11:33:40;;;;;;;3.57;3.30;;;20.60;99.90;;;;;;5097749;28;20459;-67
2022/08/25 11:36:19;;;;;;;3.60;3.30;;;20.60;99.90;;;;;;5090719;28;20537;-67
2022/08/25 11:39:11;;;;;;;3.00;2.80;;;20.50;99.90;;;;;;5093501;28;20508;-67
2022/08/25 11:41:57;;;;;;;3.30;3.10;;;20.50;99.90;;;;;;5081482;28;20482;-67
2022/08/25 11:45:05;;;;;;;3.93;3.53;;;20.40;99.90;;;;;;5086595;28;20464;-67
2022/08/25 11:47:54;;;;;;;4.70;3.70;;;20.40;99.90;;;;;;5092158;28;20606;-67
2022/08/25 11:50:31;;;;;;;3.47;3.17;;;20.30;99.90;;;;;;5085815;28;20437;-67
2022/08/25 11:53:22;;;;;;;3.30;3.00;;;20.40;99.90;;;;;;5084567;28;20973;-67
2022/08/25 11:56:01;;;;;;;3.47;3.17;;;20.30;99.90;;;;;;5097250;28;20570;-67
2022/08/25 11:58:51;;;;;;;3.83;3.27;;;20.30;99.90;;;;;;5089333;28;20497;-67
2022/08/25 12:02:01;;;;;;;3.57;3.07;;;20.20;99.90;;;;;;5095202;28;20454;-67
2022/08/25 12:04:40;;;;;;;4.20;3.67;;;20.20;99.90;;;;;;5079937;28;20459;-67
2022/08/25 12:07:26;;;;;;;3.90;3.60;;;20.10;99.90;;;;;;5084820;28;20432;-67
2022/08/25 12:10:13;;;;;;;5.00;4.37;;;20.10;99.90;;;;;;5094153;28;20471;-67
2022/08/25 12:13:28;;;;;;;3.70;3.10;;;20.10;99.90;;;;;;5100289;28;20508;-67
2022/08/25 12:16:02;;;;;;;3.97;3.17;;;20.00;99.90;;;;;;5096421;28;20482;-67
2022/08/25 12:18:45;;;;;;;3.60;3.30;;;19.90;99.90;;;;;;5090800;28;20437;-67
2022/08/25 12:21:33;;;;;;;4.20;3.80;;;20.00;99.90;;;;;;5081676;28;20430;-67
2022/08/25 12:24:15;;;;;;;3.70;2.90;;;19.90;99.90;;;;;;5086271;28;20465;-67
2022/08/25 12:26:55;;;;;;;4.33;3.90;;;19.90;99.90;;;;;;5094513;28;20459;-67
2022/08/25 12:29:33;;;;;;;4.30;3.50;;;19.90;99.90;;;;;;5096485;28;20434;-67
2022/08/25 12:32:20;;;;;;;3.30;3.00;;;19.90;99.90;;;;;;5081851;28;20539;-67
2022/08/25 12:35:32;;;;;;;6.57;3.13;;;19.80;99.90;;;;;;5082327;28;20433;-67
2022/08/25 12:38:09;;;;;;;3.50;3.20;;;19.80;99.90;;;;;;5018309;28;20472;-68
2022/08/25 12:40:54;;;;;;;3.30;3.00;;;19.80;99.90;;;;;;5023430;28;20834;-67
2022/08/25 12:43:29;;;;;;;3.73;3.43;;;19.70;99.90;;;;;;5023453;28;20982;-67
2022/08/25 12:46:34;;;;;;;3.50;3.20;;;19.70;99.90;;;;;;5026222;28;20462;-67
2022/08/25 12:49:29;;;;;;;4.27;3.83;;;19.70;99.90;;;;;;5019909;28;20444;-67
2022/08/25 12:52:05;;;;;;;3.53;3.17;;;19.70;99.90;;;;;;5028843;28;20474;-67
2022/08/25 12:54:47;;;;;;;3.30;2.90;;;19.70;99.90;;;;;;5023245;28;20496;-67
2022/08/25 12:57:34;;;;;;;4.07;3.23;;;19.70;99.90;;;;;;5023205;28;20468;-67
2022/08/25 13:00:17;;;;;;;3.70;3.07;;;19.60;99.90;;;;;;5027212;28;20437;-67
2022/08/25 13:03:14;;;;;;;3.43;3.13;;;19.60;99.90;;;;;;5025463;28;20523;-67
2022/08/25 13:06:08;;;;;;;3.97;3.57;;;19.50;99.90;;;;;;5022466;28;20519;-68
2022/08/25 13:09:06;;;;;;;4.80;3.93;;;19.50;99.90;;;;;;5023248;28;20429;-67
2022/08/25 13:11:44;;;;;;;3.87;3.20;;;19.50;99.90;;;;;;5011070;28;20908;-67
2022/08/25 13:14:23;;;;;;;4.00;3.63;;;19.40;99.90;;;;;;5085431;28;20466;-67
2022/08/25 13:16:56;;;;;;;3.83;3.17;;;19.40;99.90;;;;;;5093727;28;20479;-67
2022/08/25 13:19:28;;;;;;;4.50;3.60;;;19.30;99.90;;;;;;5121973;28;20474;-66
2022/08/25 13:22:13;;;;;;;4.50;4.10;;;19.30;99.90;;;;;;5093984;28;20430;-67
2022/08/25 13:24:48;;;;;;;4.27;3.80;;;19.40;99.90;;;;;;5107843;28;20443;-67
2022/08/25 13:27:25;;;;;;;5.40;3.23;;;19.40;99.90;;;;;;5110498;28;20820;-67
2022/08/25 13:29:58;;;;;;;3.67;3.30;;;19.40;99.90;;;;;;5085482;28;20544;-67
2022/08/25 13:32:34;;;;;;;3.67;3.13;;;19.30;99.90;;;;;;5097964;28;20459;-66
2022/08/25 13:35:19;;;;;;;3.97;3.47;;;19.30;99.90;;;;;;5120006;28;20512;-66
2022/08/25 13:37:52;;;;;;;3.73;3.00;;;19.30;99.90;;;;;;5122251;28;20547;-66